Terminal Aerodrome Forecast
Issued by NWS Greer, SC

Home | Current Version | Previous Version | Text Only | Print | Product List | Glossary On
Versions: 1 2 3 4 5 6 7 8 9 10 11 12 13 14 15 16
000
FTUS42 KGSP 011120
TAFGSP
TAF
KGSP 011120Z 0112/0212 01004KT P6SM FEW080
     FM020300 31003KT P6SM FEW060
     FM020900 01004KT P6SM FEW060=

USA.gov is the U.S. government's official web portal to all federal, state and local government web resources and services.